sensor_id;sensor_type;location;lat;lon;timestamp;pressure;altitude;pressure_sealevel;temperature;humidity
70544;BME280;58097;48.364;-1.224;2022-10-22T00:00:44;98906.75;;;15.39;82.62
70544;BME280;58097;48.364;-1.224;2022-10-22T00:03:09;98906.50;;;15.47;81.39
70544;BME280;58097;48.364;-1.224;2022-10-22T00:05:35;98913.16;;;15.46;82.11
70544;BME280;58097;48.364;-1.224;2022-10-22T00:08:00;98916.38;;;15.43;82.25
70544;BME280;58097;48.364;-1.224;2022-10-22T00:10:26;98906.31;;;15.42;82.51
70544;BME280;58097;48.364;-1.224;2022-10-22T00:12:51;98913.59;;;15.43;81.94
70544;BME280;58097;48.364;-1.224;2022-10-22T00:15:17;98923.22;;;15.40;83.03
70544;BME280;58097;48.364;-1.224;2022-10-22T00:17:42;98927.50;;;15.43;82.79
70544;BME280;58097;48.364;-1.224;2022-10-22T00:20:08;98932.66;;;15.46;81.68
70544;BME280;58097;48.364;-1.224;2022-10-22T00:22:33;98930.50;;;15.41;81.95
70544;BME280;58097;48.364;-1.224;2022-10-22T00:24:58;98931.81;;;15.39;82.38
70544;BME280;58097;48.364;-1.224;2022-10-22T00:27:24;98942.53;;;15.35;82.65
70544;BME280;58097;48.364;-1.224;2022-10-22T00:29:49;98941.03;;;15.33;82.39
70544;BME280;58097;48.364;-1.224;2022-10-22T00:32:15;98943.13;;;15.31;82.78
70544;BME280;58097;48.364;-1.224;2022-10-22T00:34:40;98947.44;;;15.27;82.17
70544;BME280;58097;48.364;-1.224;2022-10-22T00:37:05;98938.00;;;15.28;83.07
70544;BME280;58097;48.364;-1.224;2022-10-22T00:39:31;98948.28;;;15.27;82.66
70544;BME280;58097;48.364;-1.224;2022-10-22T00:41:57;98937.38;;;15.26;82.48
70544;BME280;58097;48.364;-1.224;2022-10-22T00:44:59;98946.34;;;15.28;82.35
70544;BME280;58097;48.364;-1.224;2022-10-22T00:47:25;98958.97;;;15.30;81.90
70544;BME280;58097;48.364;-1.224;2022-10-22T00:49:53;98957.06;;;15.31;82.72
70544;BME280;58097;48.364;-1.224;2022-10-22T00:52:19;98958.75;;;15.32;82.40
70544;BME280;58097;48.364;-1.224;2022-10-22T00:54:45;98965.19;;;15.32;82.87
70544;BME280;58097;48.364;-1.224;2022-10-22T00:57:11;98972.50;;;15.33;82.57
70544;BME280;58097;48.364;-1.224;2022-10-22T00:59:37;98967.56;;;15.35;82.44
70544;BME280;58097;48.364;-1.224;2022-10-22T01:02:03;98974.22;;;15.34;82.21
70544;BME280;58097;48.364;-1.224;2022-10-22T01:04:28;98980.00;;;15.33;83.31
70544;BME280;58097;48.364;-1.224;2022-10-22T01:06:53;98982.56;;;15.34;82.71
70544;BME280;58097;48.364;-1.224;2022-10-22T01:09:35;98985.97;;;15.36;83.04
70544;BME280;58097;48.364;-1.224;2022-10-22T01:12:18;98995.63;;;15.34;83.21
70544;BME280;58097;48.364;-1.224;2022-10-22T01:15:10;98994.34;;;15.36;83.17
70544;BME280;58097;48.364;-1.224;2022-10-22T01:18:00;98994.34;;;15.36;82.70
70544;BME280;58097;48.364;-1.224;2022-10-22T01:31:18;98997.09;;;15.30;83.66
70544;BME280;58097;48.364;-1.224;2022-10-22T01:33:45;99004.81;;;15.28;83.92
70544;BME280;58097;48.364;-1.224;2022-10-22T01:36:13;99005.44;;;15.30;82.74
70544;BME280;58097;48.364;-1.224;2022-10-22T01:38:40;99012.09;;;15.29;83.22
70544;BME280;58097;48.364;-1.224;2022-10-22T01:41:07;99023.84;;;15.31;82.62
70544;BME280;58097;48.364;-1.224;2022-10-22T01:43:32;99017.03;;;15.33;82.62
70544;BME280;58097;48.364;-1.224;2022-10-22T01:46:01;99022.19;;;15.36;83.44
70544;BME280;58097;48.364;-1.224;2022-10-22T01:48:56;99025.81;;;15.37;83.66
70544;BME280;58097;48.364;-1.224;2022-10-22T01:57:22;99032.00;;;15.45;83.26
70544;BME280;58097;48.364;-1.224;2022-10-22T02:00:05;99027.94;;;15.48;82.64
70544;BME280;58097;48.364;-1.224;2022-10-22T02:02:36;99033.94;;;15.52;82.35
70544;BME280;58097;48.364;-1.224;2022-10-22T02:05:15;99025.38;;;15.46;83.60
70544;BME280;58097;48.364;-1.224;2022-10-22T02:08:04;99033.72;;;15.46;83.76
70544;BME280;58097;48.364;-1.224;2022-10-22T02:10:31;99029.03;;;15.47;83.31
70544;BME280;58097;48.364;-1.224;2022-10-22T02:12:58;99030.31;;;15.44;84.15
70544;BME280;58097;48.364;-1.224;2022-10-22T02:15:26;99030.09;;;15.39;84.73
70544;BME280;58097;48.364;-1.224;2022-10-22T02:17:55;99034.59;;;15.34;84.72
70544;BME280;58097;48.364;-1.224;2022-10-22T02:20:27;99030.28;;;15.25;84.86
70544;BME280;58097;48.364;-1.224;2022-10-22T02:22:53;99032.84;;;15.19;84.61
70544;BME280;58097;48.364;-1.224;2022-10-22T02:25:20;99028.78;;;15.15;83.71
70544;BME280;58097;48.364;-1.224;2022-10-22T02:30:23;99032.00;;;15.12;84.33
70544;BME280;58097;48.364;-1.224;2022-10-22T02:32:55;99041.41;;;15.11;84.53
70544;BME280;58097;48.364;-1.224;2022-10-22T02:35:25;99040.13;;;15.14;83.91
70544;BME280;58097;48.364;-1.224;2022-10-22T02:37:53;99035.00;;;15.17;84.35
70544;BME280;58097;48.364;-1.224;2022-10-22T02:40:19;99030.72;;;15.15;84.61
70544;BME280;58097;48.364;-1.224;2022-10-22T02:42:46;99038.84;;;15.16;83.93
70544;BME280;58097;48.364;-1.224;2022-10-22T02:45:12;99039.50;;;15.18;84.54
70544;BME280;58097;48.364;-1.224;2022-10-22T02:47:38;99037.13;;;15.22;84.86
70544;BME280;58097;48.364;-1.224;2022-10-22T02:50:04;99029.00;;;15.21;85.23
70544;BME280;58097;48.364;-1.224;2022-10-22T02:52:29;99039.06;;;15.22;85.22
70544;BME280;58097;48.364;-1.224;2022-10-22T02:54:55;99032.84;;;15.26;84.71
70544;BME280;58097;48.364;-1.224;2022-10-22T02:57:20;99042.69;;;15.29;84.86
70544;BME280;58097;48.364;-1.224;2022-10-22T02:59:45;99039.69;;;15.30;84.14
70544;BME280;58097;48.364;-1.224;2022-10-22T03:02:11;99035.22;;;15.29;84.66
70544;BME280;58097;48.364;-1.224;2022-10-22T03:04:36;99040.16;;;15.34;84.21
70544;BME280;58097;48.364;-1.224;2022-10-22T03:07:01;99038.44;;;15.33;85.13
70544;BME280;58097;48.364;-1.224;2022-10-22T03:09:27;99037.38;;;15.34;84.29
70544;BME280;58097;48.364;-1.224;2022-10-22T03:11:52;99042.94;;;15.34;85.10
70544;BME280;58097;48.364;-1.224;2022-10-22T03:14:18;99042.72;;;15.35;84.47
70544;BME280;58097;48.364;-1.224;2022-10-22T03:16:43;99050.00;;;15.36;84.42
70544;BME280;58097;48.364;-1.224;2022-10-22T03:19:08;99049.59;;;15.39;84.26
70544;BME280;58097;48.364;-1.224;2022-10-22T03:21:45;99043.81;;;15.41;84.21
70544;BME280;58097;48.364;-1.224;2022-10-22T03:24:21;99047.22;;;15.43;83.80
70544;BME280;58097;48.364;-1.224;2022-10-22T03:26:49;99047.00;;;15.44;84.22
70544;BME280;58097;48.364;-1.224;2022-10-22T03:29:16;99049.78;;;15.44;84.08
70544;BME280;58097;48.364;-1.224;2022-10-22T03:31:42;99040.81;;;15.42;84.27
70544;BME280;58097;48.364;-1.224;2022-10-22T03:34:07;99053.66;;;15.43;84.03
70544;BME280;58097;48.364;-1.224;2022-10-22T03:36:33;99038.88;;;15.43;83.63
70544;BME280;58097;48.364;-1.224;2022-10-22T03:39:00;99042.09;;;15.40;83.92
70544;BME280;58097;48.364;-1.224;2022-10-22T03:41:26;99036.09;;;15.43;83.01
70544;BME280;58097;48.364;-1.224;2022-10-22T03:43:52;99041.22;;;15.46;83.57
70544;BME280;58097;48.364;-1.224;2022-10-22T03:46:18;99051.72;;;15.44;84.16
70544;BME280;58097;48.364;-1.224;2022-10-22T03:48:44;99044.00;;;15.39;83.79
70544;BME280;58097;48.364;-1.224;2022-10-22T03:51:10;99052.38;;;15.39;84.16
70544;BME280;58097;48.364;-1.224;2022-10-22T03:53:35;99045.94;;;15.39;84.19
70544;BME280;58097;48.364;-1.224;2022-10-22T03:56:01;99055.38;;;15.38;84.13
70544;BME280;58097;48.364;-1.224;2022-10-22T03:58:26;99057.06;;;15.39;83.17
70544;BME280;58097;48.364;-1.224;2022-10-22T04:00:52;99057.94;;;15.39;83.16
70544;BME280;58097;48.364;-1.224;2022-10-22T04:03:17;99056.88;;;15.40;83.38
70544;BME280;58097;48.364;-1.224;2022-10-22T04:05:43;99063.94;;;15.43;83.54
70544;BME280;58097;48.364;-1.224;2022-10-22T04:08:08;99058.38;;;15.43;83.34
70544;BME280;58097;48.364;-1.224;2022-10-22T04:10:33;99064.56;;;15.45;83.38
70544;BME280;58097;48.364;-1.224;2022-10-22T04:12:59;99072.94;;;15.45;83.16
70544;BME280;58097;48.364;-1.224;2022-10-22T04:15:25;99079.13;;;15.47;83.36
70544;BME280;58097;48.364;-1.224;2022-10-22T04:17:52;99081.06;;;15.46;83.50
70544;BME280;58097;48.364;-1.224;2022-10-22T04:20:18;99084.69;;;15.47;83.51
70544;BME280;58097;48.364;-1.224;2022-10-22T04:22:43;99087.28;;;15.42;84.17
70544;BME280;58097;48.364;-1.224;2022-10-22T04:25:08;99083.22;;;15.38;84.77
70544;BME280;58097;48.364;-1.224;2022-10-22T04:27:34;99094.56;;;15.36;84.90
70544;BME280;58097;48.364;-1.224;2022-10-22T04:30:00;99096.25;;;15.37;84.03
70544;BME280;58097;48.364;-1.224;2022-10-22T04:32:26;99104.41;;;15.39;83.94
70544;BME280;58097;48.364;-1.224;2022-10-22T04:34:52;99107.63;;;15.36;83.95
70544;BME280;58097;48.364;-1.224;2022-10-22T04:37:18;99109.94;;;15.32;84.66
70544;BME280;58097;48.364;-1.224;2022-10-22T04:39:43;99111.69;;;15.33;84.15
70544;BME280;58097;48.364;-1.224;2022-10-22T04:42:08;99111.84;;;15.32;84.21
70544;BME280;58097;48.364;-1.224;2022-10-22T04:44:34;99116.78;;;15.30;84.77
70544;BME280;58097;48.364;-1.224;2022-10-22T04:46:59;99119.78;;;15.28;84.56
70544;BME280;58097;48.364;-1.224;2022-10-22T04:49:24;99121.50;;;15.29;84.43
70544;BME280;58097;48.364;-1.224;2022-10-22T04:51:50;99136.47;;;15.28;85.07
70544;BME280;58097;48.364;-1.224;2022-10-22T04:54:15;99136.69;;;15.27;84.96
70544;BME280;58097;48.364;-1.224;2022-10-22T04:56:40;99138.41;;;15.28;84.76
70544;BME280;58097;48.364;-1.224;2022-10-22T04:59:09;99138.41;;;15.28;84.50
70544;BME280;58097;48.364;-1.224;2022-10-22T05:01:39;99150.19;;;15.30;84.11
70544;BME280;58097;48.364;-1.224;2022-10-22T05:04:06;99146.13;;;15.32;83.66
70544;BME280;58097;48.364;-1.224;2022-10-22T05:06:33;99141.03;;;15.36;84.71
70544;BME280;58097;48.364;-1.224;2022-10-22T05:09:02;99150.66;;;15.33;84.40
70544;BME280;58097;48.364;-1.224;2022-10-22T05:11:31;99158.78;;;15.35;84.63
70544;BME280;58097;48.364;-1.224;2022-10-22T05:13:59;99173.78;;;15.34;85.05
70544;BME280;58097;48.364;-1.224;2022-10-22T05:16:25;99174.84;;;15.33;84.85
70544;BME280;58097;48.364;-1.224;2022-10-22T05:18:51;99176.75;;;15.32;84.60
70544;BME280;58097;48.364;-1.224;2022-10-22T05:21:19;99173.09;;;15.32;84.81
70544;BME280;58097;48.364;-1.224;2022-10-22T05:23:46;99175.03;;;15.31;84.78
70544;BME280;58097;48.364;-1.224;2022-10-22T05:26:15;99180.81;;;15.30;85.12
70544;BME280;58097;48.364;-1.224;2022-10-22T05:28:41;99184.00;;;15.27;85.05
70544;BME280;58097;48.364;-1.224;2022-10-22T05:31:09;99182.94;;;15.28;84.71
70544;BME280;58097;48.364;-1.224;2022-10-22T05:33:35;99191.28;;;15.28;84.75
70544;BME280;58097;48.364;-1.224;2022-10-22T05:36:01;99180.16;;;15.28;85.63
70544;BME280;58097;48.364;-1.224;2022-10-22T05:38:27;99188.28;;;15.23;85.36
70544;BME280;58097;48.364;-1.224;2022-10-22T05:41:05;99186.16;;;15.25;85.21
70544;BME280;58097;48.364;-1.224;2022-10-22T05:43:31;99180.59;;;15.25;84.36
70544;BME280;58097;48.364;-1.224;2022-10-22T05:46:06;99179.09;;;15.29;84.48
70544;BME280;58097;48.364;-1.224;2022-10-22T05:48:32;99173.09;;;15.32;84.46
70544;BME280;58097;48.364;-1.224;2022-10-22T05:51:07;99173.97;;;15.32;83.94
70544;BME280;58097;48.364;-1.224;2022-10-22T05:53:34;99175.72;;;15.33;84.04
70544;BME280;58097;48.364;-1.224;2022-10-22T05:56:01;99179.31;;;15.27;85.20
70544;BME280;58097;48.364;-1.224;2022-10-22T05:58:28;99178.03;;;15.30;84.51
70544;BME280;58097;48.364;-1.224;2022-10-22T06:00:53;99179.75;;;15.31;84.39
70544;BME280;58097;48.364;-1.224;2022-10-22T06:03:19;99180.59;;;15.31;84.27
70544;BME280;58097;48.364;-1.224;2022-10-22T06:05:44;99173.31;;;15.30;84.03
70544;BME280;58097;48.364;-1.224;2022-10-22T06:08:12;99182.31;;;15.32;83.78
70544;BME280;58097;48.364;-1.224;2022-10-22T06:10:41;99184.06;;;15.33;83.74
70544;BME280;58097;48.364;-1.224;2022-10-22T06:13:07;99183.00;;;15.34;84.05
70544;BME280;58097;48.364;-1.224;2022-10-22T06:15:32;99189.41;;;15.35;84.15
70544;BME280;58097;48.364;-1.224;2022-10-22T06:17:58;99185.56;;;15.36;83.80
70544;BME280;58097;48.364;-1.224;2022-10-22T06:20:23;99188.34;;;15.36;83.76
70544;BME280;58097;48.364;-1.224;2022-10-22T06:22:48;99186.41;;;15.36;83.89
70544;BME280;58097;48.364;-1.224;2022-10-22T06:25:13;99179.34;;;15.34;83.86
70544;BME280;58097;48.364;-1.224;2022-10-22T06:27:39;99189.41;;;15.35;83.55
70544;BME280;58097;48.364;-1.224;2022-10-22T06:30:05;99186.63;;;15.35;83.84
70544;BME280;58097;48.364;-1.224;2022-10-22T06:32:30;99185.78;;;15.34;84.44
70544;BME280;58097;48.364;-1.224;2022-10-22T06:34:56;99185.50;;;15.29;83.78
70544;BME280;58097;48.364;-1.224;2022-10-22T06:37:21;99205.00;;;15.29;83.84
70544;BME280;58097;48.364;-1.224;2022-10-22T06:39:46;99198.38;;;15.30;83.75
70544;BME280;58097;48.364;-1.224;2022-10-22T06:42:12;99211.44;;;15.30;83.51
70544;BME280;58097;48.364;-1.224;2022-10-22T06:44:37;99204.78;;;15.31;83.52
70544;BME280;58097;48.364;-1.224;2022-10-22T06:47:02;99206.50;;;15.32;83.45
70544;BME280;58097;48.364;-1.224;2022-10-22T06:49:28;99202.69;;;15.33;83.97
70544;BME280;58097;48.364;-1.224;2022-10-22T06:51:53;99197.72;;;15.28;84.18
70544;BME280;58097;48.364;-1.224;2022-10-22T06:54:19;99200.72;;;15.27;83.89
70544;BME280;58097;48.364;-1.224;2022-10-22T06:56:45;99208.41;;;15.25;83.56
70544;BME280;58097;48.364;-1.224;2022-10-22T06:59:10;99217.41;;;15.27;83.50
70544;BME280;58097;48.364;-1.224;2022-10-22T07:01:36;99215.28;;;15.29;84.06
70544;BME280;58097;48.364;-1.224;2022-10-22T07:04:03;99216.31;;;15.21;84.19
70544;BME280;58097;48.364;-1.224;2022-10-22T07:06:29;99219.53;;;15.18;84.90
70544;BME280;58097;48.364;-1.224;2022-10-22T07:08:56;99219.94;;;15.15;84.59
70544;BME280;58097;48.364;-1.224;2022-10-22T07:11:29;99227.22;;;15.16;85.05
70544;BME280;58097;48.364;-1.224;2022-10-22T07:13:57;99233.66;;;15.16;84.42
70544;BME280;58097;48.364;-1.224;2022-10-22T07:16:23;99238.81;;;15.19;84.29
70544;BME280;58097;48.364;-1.224;2022-10-22T07:18:49;99235.41;;;15.24;84.89
70544;BME280;58097;48.364;-1.224;2022-10-22T07:21:16;99228.09;;;15.23;84.32
70544;BME280;58097;48.364;-1.224;2022-10-22T07:23:43;99234.09;;;15.20;84.81
70544;BME280;58097;48.364;-1.224;2022-10-22T07:26:12;99239.25;;;15.23;84.36
70544;BME280;58097;48.364;-1.224;2022-10-22T07:28:37;99238.19;;;15.24;84.40
70544;BME280;58097;48.364;-1.224;2022-10-22T07:31:06;99246.97;;;15.28;84.97
70544;BME280;58097;48.364;-1.224;2022-10-22T07:33:32;99238.81;;;15.26;84.31
70544;BME280;58097;48.364;-1.224;2022-10-22T07:35:58;99244.84;;;15.30;84.96
70544;BME280;58097;48.364;-1.224;2022-10-22T07:38:25;99250.41;;;15.30;85.16
70544;BME280;58097;48.364;-1.224;2022-10-22T07:40:50;99254.03;;;15.30;85.38
70544;BME280;58097;48.364;-1.224;2022-10-22T07:43:15;99251.91;;;15.32;84.86
70544;BME280;58097;48.364;-1.224;2022-10-22T07:45:41;99266.50;;;15.34;85.10
70544;BME280;58097;48.364;-1.224;2022-10-22T07:48:06;99262.44;;;15.37;84.70
70544;BME280;58097;48.364;-1.224;2022-10-22T07:50:31;99266.72;;;15.39;84.89
70544;BME280;58097;48.364;-1.224;2022-10-22T07:52:57;99271.03;;;15.42;85.62
70544;BME280;58097;48.364;-1.224;2022-10-22T07:55:22;99280.47;;;15.47;85.19
70544;BME280;58097;48.364;-1.224;2022-10-22T07:57:48;99289.03;;;15.46;84.94
70544;BME280;58097;48.364;-1.224;2022-10-22T08:00:14;99285.19;;;15.47;85.71
70544;BME280;58097;48.364;-1.224;2022-10-22T08:02:39;99284.34;;;15.53;85.67
70544;BME280;58097;48.364;-1.224;2022-10-22T08:05:05;99278.34;;;15.56;86.32
70544;BME280;58097;48.364;-1.224;2022-10-22T08:07:30;99284.13;;;15.55;86.12
70544;BME280;58097;48.364;-1.224;2022-10-22T08:09:56;99285.25;;;15.60;86.19
70544;BME280;58097;48.364;-1.224;2022-10-22T08:12:21;99284.00;;;15.63;86.01
70544;BME280;58097;48.364;-1.224;2022-10-22T08:14:46;99291.72;;;15.67;86.39
70544;BME280;58097;48.364;-1.224;2022-10-22T08:17:12;99296.44;;;15.67;86.35
70544;BME280;58097;48.364;-1.224;2022-10-22T08:19:37;99290.66;;;15.68;85.79
70544;BME280;58097;48.364;-1.224;2022-10-22T08:22:03;99297.72;;;15.71;86.76
70544;BME280;58097;48.364;-1.224;2022-10-22T08:24:28;99291.31;;;15.70;86.17
70544;BME280;58097;48.364;-1.224;2022-10-22T08:26:54;99301.38;;;15.71;86.65
70544;BME280;58097;48.364;-1.224;2022-10-22T08:29:21;99296.88;;;15.70;86.61
70544;BME280;58097;48.364;-1.224;2022-10-22T08:31:48;99306.50;;;15.68;86.54
70544;BME280;58097;48.364;-1.224;2022-10-22T08:34:13;99312.94;;;15.68;86.36
70544;BME280;58097;48.364;-1.224;2022-10-22T08:36:39;99311.44;;;15.72;86.12
70544;BME280;58097;48.364;-1.224;2022-10-22T08:39:04;99312.09;;;15.74;86.45
70544;BME280;58097;48.364;-1.224;2022-10-22T08:41:35;99319.16;;;15.77;86.22
70544;BME280;58097;48.364;-1.224;2022-10-22T08:49:45;99314.69;;;15.89;86.01
70544;BME280;58097;48.364;-1.224;2022-10-22T08:52:13;99325.25;;;15.94;86.27
70544;BME280;58097;48.364;-1.224;2022-10-22T08:54:56;99324.59;;;15.92;86.68
70544;BME280;58097;48.364;-1.224;2022-10-22T08:57:49;99320.09;;;15.91;86.63
70544;BME280;58097;48.364;-1.224;2022-10-22T09:00:20;99322.66;;;15.92;86.68
70544;BME280;58097;48.364;-1.224;2022-10-22T09:08:14;99316.69;;;16.02;85.98
70544;BME280;58097;48.364;-1.224;2022-10-22T09:10:45;99326.97;;;16.01;86.14
70544;BME280;58097;48.364;-1.224;2022-10-22T09:13:15;99316.03;;;16.06;86.01
70544;BME280;58097;48.364;-1.224;2022-10-22T09:15:47;99311.09;;;16.08;86.01
70544;BME280;58097;48.364;-1.224;2022-10-22T09:18:56;99306.38;;;16.09;86.27
70544;BME280;58097;48.364;-1.224;2022-10-22T09:21:19;99304.47;;;16.16;85.35
70544;BME280;58097;48.364;-1.224;2022-10-22T09:24:03;99310.09;;;16.23;85.81
70544;BME280;58097;48.364;-1.224;2022-10-22T09:26:33;99302.34;;;16.25;85.80
70544;BME280;58097;48.364;-1.224;2022-10-22T09:29:00;99307.06;;;16.24;85.68
70544;BME280;58097;48.364;-1.224;2022-10-22T09:31:26;99308.38;;;16.28;85.88
70544;BME280;58097;48.364;-1.224;2022-10-22T09:33:54;99304.50;;;16.36;85.20
70544;BME280;58097;48.364;-1.224;2022-10-22T09:36:21;99306.44;;;16.42;85.35
70544;BME280;58097;48.364;-1.224;2022-10-22T09:38:49;99313.50;;;16.45;85.48
70544;BME280;58097;48.364;-1.224;2022-10-22T09:41:15;99324.03;;;16.42;85.31
70544;BME280;58097;48.364;-1.224;2022-10-22T09:43:40;99317.81;;;16.40;85.28
70544;BME280;58097;48.364;-1.224;2022-10-22T09:46:14;99314.38;;;16.45;85.16
70544;BME280;58097;48.364;-1.224;2022-10-22T09:48:41;99320.81;;;16.46;84.99
70544;BME280;58097;48.364;-1.224;2022-10-22T09:53:44;99324.47;;;16.53;84.99
70544;BME280;58097;48.364;-1.224;2022-10-22T09:56:20;99323.84;;;16.57;84.50
70544;BME280;58097;48.364;-1.224;2022-10-22T09:58:49;99326.81;;;16.62;84.52
70544;BME280;58097;48.364;-1.224;2022-10-22T10:01:25;99321.25;;;16.62;84.43
70544;BME280;58097;48.364;-1.224;2022-10-22T10:03:51;99322.09;;;16.63;84.58
70544;BME280;58097;48.364;-1.224;2022-10-22T10:06:19;99322.75;;;16.65;84.74
70544;BME280;58097;48.364;-1.224;2022-10-22T10:08:46;99311.19;;;16.68;84.18
70544;BME280;58097;48.364;-1.224;2022-10-22T10:11:34;99312.06;;;16.82;83.69
70544;BME280;58097;48.364;-1.224;2022-10-22T10:30:23;99303.41;;;17.81;81.77
70544;BME280;58097;48.364;-1.224;2022-10-22T10:41:29;99301.91;;;18.16;80.29
70544;BME280;58097;48.364;-1.224;2022-10-22T10:44:19;99315.25;;;18.14;80.28
70544;BME280;58097;48.364;-1.224;2022-10-22T10:49:53;99305.56;;;18.17;80.09
70544;BME280;58097;48.364;-1.224;2022-10-22T10:58:24;99306.56;;;18.29;79.85
70544;BME280;58097;48.364;-1.224;2022-10-22T11:01:33;99307.59;;;18.35;79.13
70544;BME280;58097;48.364;-1.224;2022-10-22T11:06:30;99307.25;;;18.24;79.31
70544;BME280;58097;48.364;-1.224;2022-10-22T11:09:02;99306.16;;;18.25;79.43
70544;BME280;58097;48.364;-1.224;2022-10-22T11:11:44;99300.34;;;18.20;79.17
70544;BME280;58097;48.364;-1.224;2022-10-22T11:14:28;99304.25;;;18.19;79.65
70544;BME280;58097;48.364;-1.224;2022-10-22T11:17:03;99313.28;;;18.21;79.83
70544;BME280;58097;48.364;-1.224;2022-10-22T11:19:36;99309.19;;;18.24;79.69
70544;BME280;58097;48.364;-1.224;2022-10-22T11:22:18;99306.34;;;18.31;79.92
70544;BME280;58097;48.364;-1.224;2022-10-22T11:25:12;99301.53;;;18.38;80.03
70544;BME280;58097;48.364;-1.224;2022-10-22T11:27:48;99293.78;;;18.40;80.14
70544;BME280;58097;48.364;-1.224;2022-10-22T11:30:19;99289.25;;;18.39;79.43
70544;BME280;58097;48.364;-1.224;2022-10-22T11:32:50;99290.53;;;18.43;79.85
70544;BME280;58097;48.364;-1.224;2022-10-22T11:35:27;99287.97;;;18.41;79.40
70544;BME280;58097;48.364;-1.224;2022-10-22T11:37:56;99288.13;;;18.46;79.07
70544;BME280;58097;48.364;-1.224;2022-10-22T11:42:56;99292.63;;;18.47;78.79
70544;BME280;58097;48.364;-1.224;2022-10-22T11:56:22;99291.72;;;18.85;79.03
70544;BME280;58097;48.364;-1.224;2022-10-22T11:58:49;99280.91;;;18.88;79.11
70544;BME280;58097;48.364;-1.224;2022-10-22T12:01:22;99275.25;;;18.95;76.98
70544;BME280;58097;48.364;-1.224;2022-10-22T12:06:18;99265.06;;;19.19;75.10
70544;BME280;58097;48.364;-1.224;2022-10-22T12:11:40;99271.59;;;19.31;74.46
70544;BME280;58097;48.364;-1.224;2022-10-22T12:14:31;99270.69;;;19.37;75.45
70544;BME280;58097;48.364;-1.224;2022-10-22T12:17:09;99265.25;;;19.42;76.00
70544;BME280;58097;48.364;-1.224;2022-10-22T12:19:46;99263.16;;;19.56;75.43
70544;BME280;58097;48.364;-1.224;2022-10-22T12:22:23;99256.66;;;19.74;75.07
70544;BME280;58097;48.364;-1.224;2022-10-22T12:24:52;99254.72;;;19.74;73.78
70544;BME280;58097;48.364;-1.224;2022-10-22T12:27:27;99255.84;;;19.85;75.01
70544;BME280;58097;48.364;-1.224;2022-10-22T12:29:59;99249.16;;;19.86;74.69
70544;BME280;58097;48.364;-1.224;2022-10-22T12:32:36;99250.09;;;19.80;73.51
70544;BME280;58097;48.364;-1.224;2022-10-22T12:35:15;99257.44;;;19.81;75.49
70544;BME280;58097;48.364;-1.224;2022-10-22T12:37:41;99253.63;;;19.75;73.83
70544;BME280;58097;48.364;-1.224;2022-10-22T12:40:28;99245.94;;;19.71;73.33
70544;BME280;58097;48.364;-1.224;2022-10-22T12:42:59;99249.03;;;19.63;73.34
70544;BME280;58097;48.364;-1.224;2022-10-22T12:45:27;99247.31;;;19.62;74.33
70544;BME280;58097;48.364;-1.224;2022-10-22T12:47:58;99245.84;;;19.59;73.87
70544;BME280;58097;48.364;-1.224;2022-10-22T12:50:35;99245.25;;;19.57;73.18
70544;BME280;58097;48.364;-1.224;2022-10-22T12:53:16;99240.97;;;19.55;73.49
70544;BME280;58097;48.364;-1.224;2022-10-22T12:55:45;99225.38;;;19.59;74.96
70544;BME280;58097;48.364;-1.224;2022-10-22T12:58:16;99237.81;;;19.63;74.50
70544;BME280;58097;48.364;-1.224;2022-10-22T13:00:44;99228.81;;;19.61;73.94
70544;BME280;58097;48.364;-1.224;2022-10-22T13:03:26;99223.56;;;19.64;74.46
70544;BME280;58097;48.364;-1.224;2022-10-22T13:05:51;99224.22;;;19.66;74.17
70544;BME280;58097;48.364;-1.224;2022-10-22T13:08:20;99221.19;;;19.68;74.40
70544;BME280;58097;48.364;-1.224;2022-10-22T13:10:51;99215.94;;;19.71;73.91
70544;BME280;58097;48.364;-1.224;2022-10-22T13:16:21;99206.81;;;19.76;74.12
70544;BME280;58097;48.364;-1.224;2022-10-22T13:18:52;99212.19;;;19.77;74.05
70544;BME280;58097;48.364;-1.224;2022-10-22T13:23:57;99214.00;;;19.72;73.11
70544;BME280;58097;48.364;-1.224;2022-10-22T13:26:29;99218.75;;;19.71;72.84
70544;BME280;58097;48.364;-1.224;2022-10-22T13:28:56;99210.09;;;19.73;73.82
70544;BME280;58097;48.364;-1.224;2022-10-22T13:31:25;99204.25;;;19.74;74.08
70544;BME280;58097;48.364;-1.224;2022-10-22T13:33:56;99201.69;;;19.73;74.01
70544;BME280;58097;48.364;-1.224;2022-10-22T13:36:23;99194.75;;;19.75;74.40
70544;BME280;58097;48.364;-1.224;2022-10-22T13:38:48;99190.63;;;19.78;74.04
70544;BME280;58097;48.364;-1.224;2022-10-22T13:43:48;99175.25;;;19.69;73.28
70544;BME280;58097;48.364;-1.224;2022-10-22T13:46:14;99182.56;;;19.70;73.13
70544;BME280;58097;48.364;-1.224;2022-10-22T13:48:39;99178.03;;;19.69;72.18
70544;BME280;58097;48.364;-1.224;2022-10-22T13:51:13;99171.41;;;19.63;72.01
70544;BME280;58097;48.364;-1.224;2022-10-22T13:53:39;99173.97;;;19.65;72.41
70544;BME280;58097;48.364;-1.224;2022-10-22T13:56:04;99165.00;;;19.74;73.21
70544;BME280;58097;48.364;-1.224;2022-10-22T13:58:29;99164.28;;;19.79;73.91
70544;BME280;58097;48.364;-1.224;2022-10-22T14:00:57;99173.94;;;19.83;73.56
70544;BME280;58097;48.364;-1.224;2022-10-22T14:03:31;99172.84;;;19.84;73.32
70544;BME280;58097;48.364;-1.224;2022-10-22T14:05:57;99174.06;;;19.88;73.68
70544;BME280;58097;48.364;-1.224;2022-10-22T14:08:24;99177.09;;;19.87;71.99
70544;BME280;58097;48.364;-1.224;2022-10-22T14:10:51;99167.47;;;19.83;72.63
70544;BME280;58097;48.364;-1.224;2022-10-22T14:13:18;99162.09;;;19.81;72.75
70544;BME280;58097;48.364;-1.224;2022-10-22T14:15:45;99164.28;;;19.79;73.18
70544;BME280;58097;48.364;-1.224;2022-10-22T14:18:16;99154.19;;;19.78;72.03
70544;BME280;58097;48.364;-1.224;2022-10-22T14:20:50;99141.59;;;19.69;72.55
70544;BME280;58097;48.364;-1.224;2022-10-22T14:23:19;99137.53;;;19.65;71.83
70544;BME280;58097;48.364;-1.224;2022-10-22T14:25:44;99135.69;;;19.59;71.94
70544;BME280;58097;48.364;-1.224;2022-10-22T14:28:10;99135.09;;;19.57;72.57
70544;BME280;58097;48.364;-1.224;2022-10-22T14:30:36;99132.28;;;19.57;72.71
70544;BME280;58097;48.364;-1.224;2022-10-22T14:33:11;99132.75;;;19.54;72.73
70544;BME280;58097;48.364;-1.224;2022-10-22T14:35:37;99134.59;;;19.60;72.79